Latest Weather Observations for Geelong Racecourse

IDV60801

Issued at 12:31 pm EST Saturday 23 May 2015 (issued every 30 minutes, with the page automatically refreshed every 10 minutes)

About weather observations | Map of weather stations | Latest weather observations for VIC | Other Formats
Station Details ID: 087184 Name: GEELONG RACECOURSE Lat: -38.17 Lon: 144.38 Height: 12.9 m
Data from the previous 72 hours. | See also: Recent months at Geelong Racecourse
Date/Time
EST
Temp
°C
App
Temp
°C
Dew
Point
Rel
Hum
%
Delta-T
°C
Wind Press
QNH
hPa
Press
MSL
hPa
Rain
since 9 am
mm
Dir
 
Spd
km/h
Gust
km/h
Spd
kts
Gust
kts
23/12:30pm 12.3 10.4 7.4 72 2.4 SSW 7 13 4 7 1032.4 1032.4 0.0
23/12:00pm 12.5 10.7 7.2 70 2.5 SE 6 13 3 7 1032.8 1032.8 0.0
23/11:30am 12.1 10.2 6.8 70 2.5 E 6 11 3 6 1033.2 1033.2 0.0
23/11:00am 12.0 10.1 6.7 70 2.5 SSE 6 13 3 7 1033.4 1033.4 0.0
23/10:30am 11.9 9.6 7.4 74 2.2 SW 9 13 5 7 1033.5 1033.5 0.0
23/10:00am 11.7 9.6 6.8 72 2.3 SSE 7 11 4 6 1033.7 1033.7 0.0
23/09:30am 11.5 10.0 6.6 72 2.3 S 4 6 2 3 1033.6 1033.6 0.0
23/09:00am 11.0 8.5 6.4 73 2.1 S 9 17 5 9 1033.5 1033.5 0.0
23/08:30am 10.9 9.6 7.6 80 1.6 SSW 4 6 2 3 1033.4 1033.4 0.0
23/08:00am 10.6 9.2 7.1 79 1.6 SSE 4 6 2 3 1033.1 1033.1 0.0
23/07:30am 10.3 9.3 7.2 81 1.5 SSW 2 4 1 2 1032.9 1032.9 0.0
23/07:00am 10.5 9.8 7.0 79 1.6 CALM 0 4 0 2 1032.7 1032.7 0.0
23/06:30am 10.3 8.8 7.0 80 1.6 WSW 4 6 2 3 1032.5 1032.5 0.0
23/06:00am 10.4 9.6 6.7 78 1.7 CALM 0 2 0 1 1032.2 1032.2 0.0
23/05:30am 10.2 9.5 6.9 80 1.6 CALM 0 0 0 0 1032.2 1032.2 0.0
23/05:00am 10.2 8.7 6.7 79 1.6 WSW 4 4 2 2 1032.0 1032.0 0.0
23/04:30am 10.1 8.9 6.4 78 1.7 SW 2 4 1 2 1031.8 1031.8 0.0
23/04:00am 10.2 8.6 6.2 76 1.8 S 4 6 2 3 1031.7 1031.7 0.0
23/03:30am 10.2 8.5 6.0 75 1.9 SSE 4 6 2 3 1031.8 1031.8 0.0
23/03:00am 10.3 8.4 6.5 77 1.8 S 6 9 3 5 1031.9 1031.9 0.0
23/02:30am 10.4 8.4 6.4 76 1.9 S 6 9 3 5 1032.3 1032.3 0.0
23/02:00am 10.5 8.5 6.3 75 1.9 S 6 6 3 3 1032.1 1032.1 0.0
23/01:30am 10.3 9.0 5.9 74 2.0 SSW 2 2 1 1 1032.1 1032.1 0.0
23/01:00am 10.5 8.4 5.7 72 2.2 SSE 6 11 3 6 1032.2 1032.2 0.0
23/12:30am 10.9 8.7 6.1 72 2.2 S 7 9 4 5 1032.3 1032.3 0.0
23/12:00am 11.1 8.2 6.3 72 2.2 S 11 17 6 9 1032.7 1032.7 0.0
 
Date/Time
EST
Temp
°C
App
Temp
°C
Dew
Point
Rel
Hum
%
Delta-T
°C
Wind Press
QNH
hPa
Press
MSL
hPa
Rain
since 9 am
mm
Dir
 
Spd
km/h
Gust
km/h
Spd
kts
Gust
kts
22/11:30pm 11.2 8.2 6.1 71 2.4 S 11 15 6 8 1032.6 1032.6 0.0
22/11:00pm 11.2 8.3 6.3 72 2.3 SSW 11 17 6 9 1032.5 1032.5 0.0
22/10:30pm 11.2 8.3 6.5 73 2.2 SSW 11 15 6 8 1032.6 1032.6 0.0
22/10:00pm 11.1 9.2 6.8 75 2.0 SSW 6 11 3 6 1032.6 1032.6 0.0
22/09:30pm 11.1 8.9 6.3 72 2.2 S 7 9 4 5 1032.3 1032.3 0.0
22/09:00pm 11.0 9.0 6.4 73 2.1 SSW 6 7 3 4 1032.4 1032.4 0.0
22/08:30pm 11.2 8.9 5.7 69 2.5 SSE 7 9 4 5 1032.2 1032.2 0.0
22/08:00pm 11.2 7.8 6.1 71 2.4 SSW 13 19 7 10 1032.2 1032.2 0.0
22/07:30pm 11.3 9.1 6.4 72 2.3 SSW 7 9 4 5 1032.0 1032.0 0.0
22/07:00pm 11.3 9.0 5.8 69 2.5 SSE 7 13 4 7 1031.8 1031.8 0.0
22/06:30pm 11.4 7.2 5.9 69 2.6 S 17 22 9 12 1031.5 1031.5 0.0
22/06:00pm 11.4 8.8 6.3 71 2.4 S 9 15 5 8 1031.3 1031.3 0.0
22/05:30pm 11.4 8.8 6.1 70 2.5 S 9 13 5 7 1031.1 1031.1 0.0
22/05:00pm 11.6 7.9 6.1 69 2.6 S 15 22 8 12 1031.1 1031.1 0.0
22/04:30pm 11.9 7.4 6.2 68 2.7 S 19 24 10 13 1031.0 1031.0 0.0
22/04:00pm 12.3 8.4 7.0 70 2.5 S 17 24 9 13 1030.9 1030.9 0.0
22/03:30pm 12.4 8.4 6.7 68 2.7 SSW 17 28 9 15 1030.7 1030.7 0.0
22/03:00pm 12.7 8.4 7.0 68 2.7 S 19 28 10 15 1030.4 1030.4 0.0
22/02:30pm 12.9 8.6 6.9 67 2.9 S 19 24 10 13 1030.2 1030.2 0.0
22/02:00pm 13.0 8.6 6.4 64 3.1 SSE 19 28 10 15 1030.1 1030.1 0.0
22/01:30pm 13.1 8.2 6.9 66 3.0 SSW 22 32 12 17 1030.1 1030.1 0.0
22/01:00pm 13.1 8.5 6.7 65 3.0 SSW 20 28 11 15 1030.1 1030.1 0.0
22/12:30pm 14.5 10.4 8.0 65 3.2 S 19 26 10 14 1030.1 1030.1 0.0
22/12:00pm 14.2 9.6 8.2 67 3.0 S 22 28 12 15 1030.2 1030.2 0.0
22/11:30am 14.3 10.3 8.9 70 2.7 S 20 28 11 15 1030.3 1030.3 0.0
22/11:00am 14.2 10.4 9.0 71 2.6 S 19 26 10 14 1030.6 1030.6 0.0
22/10:30am 14.2 11.1 10.2 77 2.1 S 17 22 9 12 1030.3 1030.3 0.0
22/10:00am 13.5 10.8 10.5 82 1.6 S 15 26 8 14 1030.3 1030.3 0.0
22/09:30am 13.0 11.4 11.4 90 0.8 SSE 11 19 6 10 1030.2 1030.2 0.0
22/09:00am 12.5 10.9 11.4 93 0.6 S 11 15 6 8 1030.1 1030.1 2.0
22/08:30am 12.1 11.1 11.0 93 0.6 S 7 9 4 5 1030.0 1030.0 2.0
22/08:00am 11.7 10.6 10.8 94 0.5 S 7 11 4 6 1029.7 1029.7 2.0
22/07:30am 11.6 10.1 10.7 94 0.5 S 9 11 5 6 1029.4 1029.4 2.0
22/07:00am 11.6 9.8 10.7 94 0.5 S 11 17 6 9 1029.0 1029.0 2.0
22/06:30am 11.4 11.2 10.5 94 0.5 SSW 2 6 1 3 1028.6 1028.6 2.0
22/06:00am 11.3 10.3 10.4 94 0.5 WSW 6 6 3 3 1028.3 1028.3 1.6
22/05:30am 11.4 11.2 10.5 94 0.5 SSW 2 4 1 2 1027.9 1027.9 1.6
22/05:00am 11.3 10.7 10.4 94 0.5 SSW 4 6 2 3 1027.8 1027.8 1.6
22/04:30am 11.5 11.7 10.6 94 0.5 CALM 0 2 0 1 1027.7 1027.7 1.6
22/04:00am 11.5 11.0 10.6 94 0.5 SSW 4 6 2 3 1027.6 1027.6 1.6
22/03:30am 11.2 10.6 10.3 94 0.5 SW 4 6 2 3 1027.4 1027.4 1.6
22/03:00am 10.8 10.4 9.9 94 0.5 SW 2 4 1 2 1027.3 1027.3 1.6
22/02:30am 11.2 11.0 10.3 94 0.5 SW 2 2 1 1 1027.2 1027.2 1.6
22/02:00am 11.3 10.7 10.4 94 0.5 SW 4 6 2 3 1027.2 1027.2 1.6
22/01:30am 11.6 11.0 10.5 93 0.6 S 4 6 2 3 1027.0 1027.0 1.4
22/01:00am 12.0 11.5 10.9 93 0.6 S 4 6 2 3 1027.0 1027.0 1.4
22/12:30am 12.1 11.7 11.0 93 0.6 ESE 4 6 2 3 1026.9 1026.9 1.4
22/12:00am 12.0 12.3 10.9 93 0.6 CALM 0 2 0 1 1026.9 1026.9 1.4
 
Date/Time
EST
Temp
°C
App
Temp
°C
Dew
Point
Rel
Hum
%
Delta-T
°C
Wind Press
QNH
hPa
Press
MSL
hPa
Rain
since 9 am
mm
Dir
 
Spd
km/h
Gust
km/h
Spd
kts
Gust
kts
21/11:30pm 12.0 11.5 10.9 93 0.6 SSE 4 6 2 3 1026.8 1026.8 1.0
21/11:00pm 12.1 11.3 11.0 93 0.6 SSE 6 7 3 4 1026.8 1026.8 1.0
21/10:30pm 12.0 11.9 10.9 93 0.6 SSE 2 7 1 4 1026.7 1026.7 1.0
21/10:00pm 12.1 12.1 11.0 93 0.6 SE 2 6 1 3 1026.7 1026.7 1.0
21/09:30pm 12.0 11.2 10.9 93 0.6 SE 6 9 3 5 1026.5 1026.5 1.0
21/09:00pm 12.5 10.1 11.4 93 0.6 SE 15 20 8 11 1026.1 1026.1 1.0
21/08:30pm 12.4 9.6 11.3 93 0.6 SE 17 24 9 13 1025.7 1025.7 1.0
21/08:00pm 12.5 9.1 11.4 93 0.6 SSE 20 32 11 17 1025.4 1025.4 1.0
21/07:30pm 12.9 9.9 12.0 94 0.5 S 19 26 10 14 1024.9 1024.9 1.0
21/07:00pm 12.4 9.6 11.5 94 0.5 SSW 17 26 9 14 1024.8 1024.8 1.0
21/06:30pm 11.7 8.1 10.6 93 0.6 SW 20 28 11 15 1024.6 1024.6 0.6
21/06:00pm 11.5 8.8 10.4 93 0.6 SSW 15 22 8 12 1024.5 1024.5 0.4
21/05:30pm 11.8 9.5 10.5 92 0.7 SSW 13 19 7 10 1024.4 1024.4 0.2
21/05:00pm 12.0 9.4 10.7 92 0.7 SSW 15 22 8 12 1024.2 1024.2 0.0
21/04:30pm 12.3 8.3 9.1 81 1.6 SSW 20 26 11 14 1024.1 1024.1 0.0
21/04:00pm 12.9 8.3 8.2 73 2.3 SSW 22 32 12 17 1023.9 1023.9 0.0
21/03:30pm 13.1 8.6 8.4 73 2.3 SSW 22 32 12 17 1023.7 1023.7 0.0
21/03:00pm 13.1 9.2 8.6 74 2.2 SSW 19 32 10 17 1023.6 1023.6 0.0
21/02:30pm 12.7 8.3 9.0 78 1.9 S 22 33 12 18 1023.6 1023.6 0.0
21/02:00pm 11.5 8.8 10.2 92 0.7 S 15 22 8 12 1023.5 1023.5 0.0
21/01:30pm 12.4 9.2 10.0 85 1.2 S 17 30 9 16 1023.7 1023.7 0.0
21/01:00pm 13.3 9.5 9.2 76 2.1 S 19 26 10 14 1023.7 1023.7 0.0
21/12:30pm 13.2 9.7 8.9 75 2.2 S 17 24 9 13 1024.0 1024.0 0.0
21/12:00pm 12.7 8.9 9.0 78 1.9 S 19 28 10 15 1024.3 1024.3 0.0
21/11:30am 13.0 9.0 8.3 73 2.3 SSW 19 24 10 13 1024.4 1024.4 0.0
21/11:00am 12.9 9.6 8.0 72 2.4 S 15 20 8 11 1024.6 1024.6 0.0
21/10:30am 11.9 7.9 9.1 83 1.4 S 20 30 11 16 1024.6 1024.6 0.0
21/10:00am 12.8 9.0 7.5 70 2.6 SSW 17 22 9 12 1024.2 1024.2 0.0
21/09:30am 11.6 10.0 8.1 79 1.7 W 6 7 3 4 1023.9 1023.9 0.0
21/09:00am 11.2 9.5 8.4 83 1.4 WSW 7 9 4 5 1023.7 1023.7 4.8
21/08:30am 10.7 8.6 8.1 84 1.3 W 9 13 5 7 1023.5 1023.5 4.8
21/08:00am 10.4 8.7 8.2 86 1.1 WSW 7 11 4 6 1023.2 1023.2 4.8
21/07:30am 10.9 8.8 6.8 76 1.9 SW 7 13 4 7 1022.8 1022.8 4.8
21/07:00am 10.6 8.9 8.2 85 1.2 SW 7 11 4 6 1022.5 1022.5 4.8
21/06:30am 10.4 8.3 8.3 87 1.0 WSW 9 15 5 8 1022.3 1022.3 4.8
21/06:00am 10.1 8.5 8.9 92 0.6 W 7 9 4 5 1022.0 1022.0 4.8
21/05:30am 10.0 9.0 8.8 92 0.6 WSW 4 7 2 4 1021.6 1021.6 4.8
21/05:00am 10.1 8.7 8.7 91 0.7 W 6 7 3 4 1021.4 1021.4 4.8
21/04:30am 10.3 8.7 7.9 85 1.2 W 6 9 3 5 1021.1 1021.1 4.8
21/04:00am 10.9 8.3 7.6 80 1.6 SSW 11 17 6 9 1021.1 1021.1 4.8
21/03:30am 10.9 8.3 7.6 80 1.6 SSW 11 17 6 9 1021.1 1021.1 4.8
21/03:00am 10.8 7.9 8.0 83 1.4 SSW 13 19 7 10 1020.9 1020.9 4.8
21/02:30am 10.8 7.2 8.2 84 1.3 SSW 17 22 9 12 1020.9 1020.9 4.8
21/02:00am 10.6 7.6 9.4 92 0.6 SSW 15 20 8 11 1020.8 1020.8 4.8
21/01:30am 10.3 7.3 9.2 93 0.5 SSW 15 20 8 11 1020.5 1020.5 4.8
21/01:00am 9.9 7.2 9.0 94 0.4 SSW 13 20 7 11 1020.4 1020.4 4.8
21/12:30am 10.0 6.6 9.1 94 0.4 SW 17 24 9 13 1020.3 1020.3 4.8
21/12:00am 10.1 6.7 9.2 94 0.4 SW 17 24 9 13 1020.2 1020.2 4.8
 
Date/Time
EST
Temp
°C
App
Temp
°C
Dew
Point
Rel
Hum
%
Delta-T
°C
Wind Press
QNH
hPa
Press
MSL
hPa
Rain
since 9 am
mm
Dir
 
Spd
km/h
Gust
km/h
Spd
kts
Gust
kts
20/11:30pm 10.3 6.4 9.4 94 0.4 SW 20 28 11 15 1019.9 1019.9 4.6
20/11:00pm 10.4 8.2 9.5 94 0.4 SW 11 17 6 9 1019.6 1019.6 4.6
20/10:30pm 10.5 7.2 9.6 94 0.5 SSW 17 24 9 13 1019.5 1019.5 4.2
20/10:00pm 10.7 7.5 9.8 94 0.5 SW 17 24 9 13 1019.3 1019.3 4.0
20/09:30pm 10.8 7.2 9.9 94 0.5 SSW 19 26 10 14 1019.0 1019.0 3.8
20/09:00pm 10.9 6.8 10.0 94 0.5 SW 22 28 12 15 1018.5 1018.5 3.8
20/08:30pm 10.9 7.3 10.0 94 0.5 SW 19 30 10 16 1018.1 1018.1 3.8
20/08:00pm 10.9 6.8 10.0 94 0.5 SW 22 32 12 17 1017.6 1017.6 3.8
20/07:30pm 11.1 5.5 10.2 94 0.5 SW 30 44 16 24 1017.1 1017.1 3.8
20/07:00pm 11.5 6.0 10.6 94 0.5 SW 30 44 16 24 1016.3 1016.3 3.6
20/06:30pm 11.9 7.7 11.0 94 0.5 SW 24 37 13 20 1015.5 1015.5 3.4
20/06:00pm 12.4 7.9 11.5 94 0.5 SW 26 39 14 21 1014.7 1014.7 2.8
20/05:30pm 12.8 8.8 11.7 93 0.6 SW 24 35 13 19 1013.7 1013.7 2.4
20/05:00pm 13.8 11.4 12.7 93 0.6 SW 17 26 9 14 1012.8 1012.8 2.0
20/04:30pm 13.9 12.3 12.8 93 0.6 WSW 13 24 7 13 1012.3 1012.3 1.8
20/04:00pm 15.2 12.1 12.2 82 1.6 WNW 20 32 11 17 1011.6 1011.6 0.0
20/03:30pm 15.9 12.8 12.1 78 2.1 WNW 20 32 11 17 1010.9 1010.9 0.0
20/03:00pm 16.6 13.2 12.6 77 2.2 WNW 22 35 12 19 1010.5 1010.5 0.0
20/02:30pm 17.5 14.8 12.8 74 2.6 NW 19 28 10 15 1010.2 1010.2 0.0
20/02:00pm 16.0 12.6 11.4 74 2.5 WNW 20 30 11 16 1010.1 1010.1 0.0
20/01:30pm 16.5 12.2 10.8 69 3.0 NW 24 43 13 23 1010.1 1010.1 0.0
20/01:00pm 15.9 11.6 10.7 71 2.8 NW 24 33 13 18 1010.2 1010.2 0.0

Other Formats:

Comma delimited format used in spreadsheet applications
http://www.bom.gov.au/fwo/IDV60801/IDV60801.94857.axf

JavaScript Object Notation format (JSON) in row-major order
http://www.bom.gov.au/fwo/IDV60801/IDV60801.94857.json